sensor_id;sensor_type;location;lat;lon;timestamp;temperature;humidity
42037;DHT22;30340;52.004;5.908;2023-05-29T00:02:04;13.10;76.20
42037;DHT22;30340;52.004;5.908;2023-05-29T00:04:29;13.00;76.20
42037;DHT22;30340;52.004;5.908;2023-05-29T00:06:55;13.00;76.40
42037;DHT22;30340;52.004;5.908;2023-05-29T00:09:21;13.00;76.40
42037;DHT22;30340;52.004;5.908;2023-05-29T00:11:46;13.00;76.40
42037;DHT22;30340;52.004;5.908;2023-05-29T00:14:16;12.90;76.50
42037;DHT22;30340;52.004;5.908;2023-05-29T00:16:45;12.80;76.60
42037;DHT22;30340;52.004;5.908;2023-05-29T00:19:12;12.80;76.70
42037;DHT22;30340;52.004;5.908;2023-05-29T00:21:39;12.70;76.80
42037;DHT22;30340;52.004;5.908;2023-05-29T00:24:07;12.70;76.60
42037;DHT22;30340;52.004;5.908;2023-05-29T00:26:33;12.70;76.50
42037;DHT22;30340;52.004;5.908;2023-05-29T00:28:58;12.70;76.50
42037;DHT22;30340;52.004;5.908;2023-05-29T00:31:24;12.60;76.60
42037;DHT22;30340;52.004;5.908;2023-05-29T00:33:50;12.60;76.60
42037;DHT22;30340;52.004;5.908;2023-05-29T00:36:15;12.60;76.50
42037;DHT22;30340;52.004;5.908;2023-05-29T00:38:41;12.60;76.40
42037;DHT22;30340;52.004;5.908;2023-05-29T00:41:12;12.50;76.30
42037;DHT22;30340;52.004;5.908;2023-05-29T00:43:38;12.50;76.20
42037;DHT22;30340;52.004;5.908;2023-05-29T00:46:04;12.50;76.10
42037;DHT22;30340;52.004;5.908;2023-05-29T00:48:29;12.40;75.90
42037;DHT22;30340;52.004;5.908;2023-05-29T00:50:55;12.40;76.00
42037;DHT22;30340;52.004;5.908;2023-05-29T00:53:24;12.40;75.90
42037;DHT22;30340;52.004;5.908;2023-05-29T00:55:50;12.40;75.70
42037;DHT22;30340;52.004;5.908;2023-05-29T00:58:16;12.40;75.50
42037;DHT22;30340;52.004;5.908;2023-05-29T01:00:41;12.40;75.40
42037;DHT22;30340;52.004;5.908;2023-05-29T01:03:08;12.40;75.40
42037;DHT22;30340;52.004;5.908;2023-05-29T01:05:35;12.40;75.50
42037;DHT22;30340;52.004;5.908;2023-05-29T01:08:02;12.40;75.40
42037;DHT22;30340;52.004;5.908;2023-05-29T01:10:28;12.40;75.20
42037;DHT22;30340;52.004;5.908;2023-05-29T01:18:50;12.20;75.00
42037;DHT22;30340;52.004;5.908;2023-05-29T01:21:39;12.20;75.00
42037;DHT22;30340;52.004;5.908;2023-05-29T01:24:26;12.30;75.00
42037;DHT22;30340;52.004;5.908;2023-05-29T01:27:05;12.20;74.90
42037;DHT22;30340;52.004;5.908;2023-05-29T01:29:34;12.20;74.90
42037;DHT22;30340;52.004;5.908;2023-05-29T01:32:00;12.20;74.90
42037;DHT22;30340;52.004;5.908;2023-05-29T01:34:27;12.20;74.80
42037;DHT22;30340;52.004;5.908;2023-05-29T01:36:53;12.20;75.00
42037;DHT22;30340;52.004;5.908;2023-05-29T01:39:19;12.20;75.10
42037;DHT22;30340;52.004;5.908;2023-05-29T01:41:47;12.10;75.10
42037;DHT22;30340;52.004;5.908;2023-05-29T01:44:13;12.10;75.10
42037;DHT22;30340;52.004;5.908;2023-05-29T01:46:43;12.10;75.20
42037;DHT22;30340;52.004;5.908;2023-05-29T01:49:11;12.00;75.50
42037;DHT22;30340;52.004;5.908;2023-05-29T01:51:40;12.00;75.60
42037;DHT22;30340;52.004;5.908;2023-05-29T01:54:07;12.00;75.60
42037;DHT22;30340;52.004;5.908;2023-05-29T01:56:33;12.00;75.70
42037;DHT22;30340;52.004;5.908;2023-05-29T01:59:00;11.90;75.70
42037;DHT22;30340;52.004;5.908;2023-05-29T02:01:27;11.90;75.90
42037;DHT22;30340;52.004;5.908;2023-05-29T02:03:52;11.90;75.90
42037;DHT22;30340;52.004;5.908;2023-05-29T02:06:18;11.90;76.00
42037;DHT22;30340;52.004;5.908;2023-05-29T02:08:44;11.80;76.40
42037;DHT22;30340;52.004;5.908;2023-05-29T02:11:10;11.80;76.60
42037;DHT22;30340;52.004;5.908;2023-05-29T02:13:35;11.70;76.70
42037;DHT22;30340;52.004;5.908;2023-05-29T02:16:01;11.70;77.20
42037;DHT22;30340;52.004;5.908;2023-05-29T02:18:26;11.60;77.30
42037;DHT22;30340;52.004;5.908;2023-05-29T02:20:52;11.60;77.50
42037;DHT22;30340;52.004;5.908;2023-05-29T02:23:18;11.60;77.70
42037;DHT22;30340;52.004;5.908;2023-05-29T02:25:44;11.50;77.80
42037;DHT22;30340;52.004;5.908;2023-05-29T02:28:10;11.50;77.90
42037;DHT22;30340;52.004;5.908;2023-05-29T02:30:36;11.50;78.10
42037;DHT22;30340;52.004;5.908;2023-05-29T02:33:01;11.50;78.10
42037;DHT22;30340;52.004;5.908;2023-05-29T02:35:27;11.40;78.20
42037;DHT22;30340;52.004;5.908;2023-05-29T02:37:53;11.40;78.30
42037;DHT22;30340;52.004;5.908;2023-05-29T02:40:20;11.40;78.60
42037;DHT22;30340;52.004;5.908;2023-05-29T02:42:46;11.40;78.80
42037;DHT22;30340;52.004;5.908;2023-05-29T02:45:12;11.30;78.80
42037;DHT22;30340;52.004;5.908;2023-05-29T02:47:37;11.30;79.00
42037;DHT22;30340;52.004;5.908;2023-05-29T02:50:03;11.30;79.00
42037;DHT22;30340;52.004;5.908;2023-05-29T02:52:29;11.30;79.20
42037;DHT22;30340;52.004;5.908;2023-05-29T02:54:58;11.30;79.20
42037;DHT22;30340;52.004;5.908;2023-05-29T02:57:24;11.20;79.30
42037;DHT22;30340;52.004;5.908;2023-05-29T02:59:50;11.20;79.40
42037;DHT22;30340;52.004;5.908;2023-05-29T03:02:17;11.20;79.50
42037;DHT22;30340;52.004;5.908;2023-05-29T03:04:43;11.10;79.50
42037;DHT22;30340;52.004;5.908;2023-05-29T03:07:09;11.00;79.70
42037;DHT22;30340;52.004;5.908;2023-05-29T03:09:35;11.10;79.90
42037;DHT22;30340;52.004;5.908;2023-05-29T03:12:00;11.10;80.00
42037;DHT22;30340;52.004;5.908;2023-05-29T03:14:26;11.00;80.00
42037;DHT22;30340;52.004;5.908;2023-05-29T03:16:53;11.00;80.20
42037;DHT22;30340;52.004;5.908;2023-05-29T03:19:19;11.00;80.40
42037;DHT22;30340;52.004;5.908;2023-05-29T03:21:44;10.90;80.50
42037;DHT22;30340;52.004;5.908;2023-05-29T03:24:10;10.90;80.80
42037;DHT22;30340;52.004;5.908;2023-05-29T03:26:36;10.80;80.90
42037;DHT22;30340;52.004;5.908;2023-05-29T03:29:02;10.80;81.10
42037;DHT22;30340;52.004;5.908;2023-05-29T03:31:27;10.80;81.20
42037;DHT22;30340;52.004;5.908;2023-05-29T03:33:53;10.80;81.30
42037;DHT22;30340;52.004;5.908;2023-05-29T03:36:19;10.80;81.50
42037;DHT22;30340;52.004;5.908;2023-05-29T03:38:44;10.80;81.60
42037;DHT22;30340;52.004;5.908;2023-05-29T03:41:10;10.80;81.60
42037;DHT22;30340;52.004;5.908;2023-05-29T03:43:36;10.80;81.70
42037;DHT22;30340;52.004;5.908;2023-05-29T03:46:02;10.80;81.60
42037;DHT22;30340;52.004;5.908;2023-05-29T03:48:27;10.80;81.50
42037;DHT22;30340;52.004;5.908;2023-05-29T03:50:53;10.80;81.50
42037;DHT22;30340;52.004;5.908;2023-05-29T03:53:18;10.80;81.60
42037;DHT22;30340;52.004;5.908;2023-05-29T03:55:44;10.80;81.60
42037;DHT22;30340;52.004;5.908;2023-05-29T03:58:10;10.80;81.40
42037;DHT22;30340;52.004;5.908;2023-05-29T04:00:38;10.90;81.30
42037;DHT22;30340;52.004;5.908;2023-05-29T04:03:04;10.90;81.40
42037;DHT22;30340;52.004;5.908;2023-05-29T04:05:29;10.90;81.30
42037;DHT22;30340;52.004;5.908;2023-05-29T04:07:56;10.90;81.20
42037;DHT22;30340;52.004;5.908;2023-05-29T04:10:21;11.00;81.10
42037;DHT22;30340;52.004;5.908;2023-05-29T04:12:47;11.00;81.20
42037;DHT22;30340;52.004;5.908;2023-05-29T04:15:13;11.00;80.90
42037;DHT22;30340;52.004;5.908;2023-05-29T04:17:38;11.00;80.80
42037;DHT22;30340;52.004;5.908;2023-05-29T04:20:04;11.00;80.70
42037;DHT22;30340;52.004;5.908;2023-05-29T04:22:33;11.10;80.60
42037;DHT22;30340;52.004;5.908;2023-05-29T04:24:59;11.10;80.40
42037;DHT22;30340;52.004;5.908;2023-05-29T04:27:24;11.10;80.30
42037;DHT22;30340;52.004;5.908;2023-05-29T04:29:50;11.10;80.50
42037;DHT22;30340;52.004;5.908;2023-05-29T04:32:16;11.10;80.40
42037;DHT22;30340;52.004;5.908;2023-05-29T04:34:41;11.10;80.30
42037;DHT22;30340;52.004;5.908;2023-05-29T04:37:09;11.10;80.10
42037;DHT22;30340;52.004;5.908;2023-05-29T04:39:35;11.20;80.10
42037;DHT22;30340;52.004;5.908;2023-05-29T04:42:01;11.20;79.90
42037;DHT22;30340;52.004;5.908;2023-05-29T04:44:26;11.20;79.80
42037;DHT22;30340;52.004;5.908;2023-05-29T04:46:52;11.20;79.60
42037;DHT22;30340;52.004;5.908;2023-05-29T04:49:18;11.20;79.80
42037;DHT22;30340;52.004;5.908;2023-05-29T04:51:44;11.20;80.40
42037;DHT22;30340;52.004;5.908;2023-05-29T04:54:11;11.20;80.20
42037;DHT22;30340;52.004;5.908;2023-05-29T04:56:36;11.30;80.00
42037;DHT22;30340;52.004;5.908;2023-05-29T04:59:03;11.60;79.40
42037;DHT22;30340;52.004;5.908;2023-05-29T05:01:28;12.10;78.30
42037;DHT22;30340;52.004;5.908;2023-05-29T05:03:54;12.70;76.40
42037;DHT22;30340;52.004;5.908;2023-05-29T05:06:23;13.10;74.50
42037;DHT22;30340;52.004;5.908;2023-05-29T05:08:51;13.40;73.00
42037;DHT22;30340;52.004;5.908;2023-05-29T05:11:20;13.60;71.80
42037;DHT22;30340;52.004;5.908;2023-05-29T05:13:46;13.90;71.00
42037;DHT22;30340;52.004;5.908;2023-05-29T05:16:11;14.00;70.30
42037;DHT22;30340;52.004;5.908;2023-05-29T05:18:38;14.30;69.50
42037;DHT22;30340;52.004;5.908;2023-05-29T05:21:04;14.50;68.70
42037;DHT22;30340;52.004;5.908;2023-05-29T05:23:30;14.40;68.00
42037;DHT22;30340;52.004;5.908;2023-05-29T05:25:56;14.40;68.00
42037;DHT22;30340;52.004;5.908;2023-05-29T05:28:21;14.50;67.80
42037;DHT22;30340;52.004;5.908;2023-05-29T05:30:47;14.60;67.10
42037;DHT22;30340;52.004;5.908;2023-05-29T05:33:13;14.70;66.80
42037;DHT22;30340;52.004;5.908;2023-05-29T05:35:38;15.00;66.20
42037;DHT22;30340;52.004;5.908;2023-05-29T05:38:04;15.20;65.70
42037;DHT22;30340;52.004;5.908;2023-05-29T05:40:30;15.40;65.20
42037;DHT22;30340;52.004;5.908;2023-05-29T05:42:55;15.60;64.50
42037;DHT22;30340;52.004;5.908;2023-05-29T05:45:21;15.60;63.90
42037;DHT22;30340;52.004;5.908;2023-05-29T05:47:47;15.40;63.90
42037;DHT22;30340;52.004;5.908;2023-05-29T05:50:12;15.40;64.00
42037;DHT22;30340;52.004;5.908;2023-05-29T05:52:38;15.30;63.70
42037;DHT22;30340;52.004;5.908;2023-05-29T05:55:04;15.50;63.80
42037;DHT22;30340;52.004;5.908;2023-05-29T05:57:29;15.80;63.00
42037;DHT22;30340;52.004;5.908;2023-05-29T05:59:58;15.90;62.50
42037;DHT22;30340;52.004;5.908;2023-05-29T06:02:23;16.10;62.00
42037;DHT22;30340;52.004;5.908;2023-05-29T06:04:49;16.10;61.00
42037;DHT22;30340;52.004;5.908;2023-05-29T06:07:15;16.10;61.60
42037;DHT22;30340;52.004;5.908;2023-05-29T06:09:40;16.20;61.70
42037;DHT22;30340;52.004;5.908;2023-05-29T06:12:07;16.20;61.10
42037;DHT22;30340;52.004;5.908;2023-05-29T06:14:33;16.10;61.60
42037;DHT22;30340;52.004;5.908;2023-05-29T06:17:00;16.10;61.50
42037;DHT22;30340;52.004;5.908;2023-05-29T06:19:25;16.00;62.20
42037;DHT22;30340;52.004;5.908;2023-05-29T06:21:51;15.90;61.70
42037;DHT22;30340;52.004;5.908;2023-05-29T06:24:16;15.80;61.90
42037;DHT22;30340;52.004;5.908;2023-05-29T06:26:42;15.60;62.00
42037;DHT22;30340;52.004;5.908;2023-05-29T06:29:07;15.50;62.20
42037;DHT22;30340;52.004;5.908;2023-05-29T06:31:33;15.40;62.20
42037;DHT22;30340;52.004;5.908;2023-05-29T06:33:59;15.20;62.40
42037;DHT22;30340;52.004;5.908;2023-05-29T06:36:24;15.20;62.80
42037;DHT22;30340;52.004;5.908;2023-05-29T06:38:51;15.10;62.40
42037;DHT22;30340;52.004;5.908;2023-05-29T06:41:17;15.10;62.70
42037;DHT22;30340;52.004;5.908;2023-05-29T06:43:43;15.10;62.80
42037;DHT22;30340;52.004;5.908;2023-05-29T06:46:09;15.20;62.80
42037;DHT22;30340;52.004;5.908;2023-05-29T06:48:35;15.20;62.40
42037;DHT22;30340;52.004;5.908;2023-05-29T06:51:01;15.20;62.40
42037;DHT22;30340;52.004;5.908;2023-05-29T06:53:38;15.30;62.00
42037;DHT22;30340;52.004;5.908;2023-05-29T06:56:04;15.30;62.10
42037;DHT22;30340;52.004;5.908;2023-05-29T06:58:30;15.30;62.30
42037;DHT22;30340;52.004;5.908;2023-05-29T07:00:57;15.40;61.40
42037;DHT22;30340;52.004;5.908;2023-05-29T07:03:23;15.40;62.10
42037;DHT22;30340;52.004;5.908;2023-05-29T07:05:49;15.50;61.70
42037;DHT22;30340;52.004;5.908;2023-05-29T07:08:14;15.50;60.30
42037;DHT22;30340;52.004;5.908;2023-05-29T07:10:40;15.50;60.80
42037;DHT22;30340;52.004;5.908;2023-05-29T07:13:06;15.50;60.60
42037;DHT22;30340;52.004;5.908;2023-05-29T07:15:32;15.60;60.30
42037;DHT22;30340;52.004;5.908;2023-05-29T07:17:57;15.70;60.10
42037;DHT22;30340;52.004;5.908;2023-05-29T07:20:23;15.80;59.80
42037;DHT22;30340;52.004;5.908;2023-05-29T07:22:48;15.90;59.30
42037;DHT22;30340;52.004;5.908;2023-05-29T07:25:14;15.80;58.80
42037;DHT22;30340;52.004;5.908;2023-05-29T07:27:40;15.90;59.90
42037;DHT22;30340;52.004;5.908;2023-05-29T07:30:06;16.00;59.00
42037;DHT22;30340;52.004;5.908;2023-05-29T07:32:32;16.20;58.70
42037;DHT22;30340;52.004;5.908;2023-05-29T07:34:58;16.30;58.20
42037;DHT22;30340;52.004;5.908;2023-05-29T07:37:24;16.30;58.10
42037;DHT22;30340;52.004;5.908;2023-05-29T07:39:49;16.40;58.00
42037;DHT22;30340;52.004;5.908;2023-05-29T07:42:15;16.50;57.90
42037;DHT22;30340;52.004;5.908;2023-05-29T07:44:40;16.40;57.60
42037;DHT22;30340;52.004;5.908;2023-05-29T07:47:09;16.50;58.10
42037;DHT22;30340;52.004;5.908;2023-05-29T07:49:35;16.60;57.90
42037;DHT22;30340;52.004;5.908;2023-05-29T07:52:02;16.70;57.40
42037;DHT22;30340;52.004;5.908;2023-05-29T07:54:27;16.80;57.20
42037;DHT22;30340;52.004;5.908;2023-05-29T07:56:53;16.80;57.10
42037;DHT22;30340;52.004;5.908;2023-05-29T07:59:19;16.80;57.00
42037;DHT22;30340;52.004;5.908;2023-05-29T08:01:45;16.90;56.90
42037;DHT22;30340;52.004;5.908;2023-05-29T08:04:11;16.90;57.10
42037;DHT22;30340;52.004;5.908;2023-05-29T08:06:36;17.10;57.00
42037;DHT22;30340;52.004;5.908;2023-05-29T08:09:02;17.10;56.60
42037;DHT22;30340;52.004;5.908;2023-05-29T08:11:28;17.20;56.50
42037;DHT22;30340;52.004;5.908;2023-05-29T08:13:54;17.20;56.10
42037;DHT22;30340;52.004;5.908;2023-05-29T08:16:20;17.20;56.30
42037;DHT22;30340;52.004;5.908;2023-05-29T08:18:47;17.20;56.30
42037;DHT22;30340;52.004;5.908;2023-05-29T08:21:13;17.30;56.40
42037;DHT22;30340;52.004;5.908;2023-05-29T08:23:38;17.30;55.90
42037;DHT22;30340;52.004;5.908;2023-05-29T08:26:04;17.20;55.90
42037;DHT22;30340;52.004;5.908;2023-05-29T08:28:30;17.20;55.90
42037;DHT22;30340;52.004;5.908;2023-05-29T08:30:55;17.30;55.80
42037;DHT22;30340;52.004;5.908;2023-05-29T08:33:21;17.30;55.70
42037;DHT22;30340;52.004;5.908;2023-05-29T08:35:47;17.30;55.60
42037;DHT22;30340;52.004;5.908;2023-05-29T08:38:12;17.40;55.60
42037;DHT22;30340;52.004;5.908;2023-05-29T08:40:38;17.40;55.40
42037;DHT22;30340;52.004;5.908;2023-05-29T08:43:23;17.30;55.30
42037;DHT22;30340;52.004;5.908;2023-05-29T08:45:53;17.30;54.80
42037;DHT22;30340;52.004;5.908;2023-05-29T08:48:23;17.40;55.10
42037;DHT22;30340;52.004;5.908;2023-05-29T08:50:52;17.40;55.00
42037;DHT22;30340;52.004;5.908;2023-05-29T08:53:18;17.40;54.80
42037;DHT22;30340;52.004;5.908;2023-05-29T08:55:45;17.50;54.50
42037;DHT22;30340;52.004;5.908;2023-05-29T08:58:13;17.60;54.80
42037;DHT22;30340;52.004;5.908;2023-05-29T09:00:39;17.60;54.70
42037;DHT22;30340;52.004;5.908;2023-05-29T09:03:06;17.60;54.40
42037;DHT22;30340;52.004;5.908;2023-05-29T09:05:32;17.70;54.00
42037;DHT22;30340;52.004;5.908;2023-05-29T09:07:59;17.70;53.90
42037;DHT22;30340;52.004;5.908;2023-05-29T09:10:25;17.80;53.80
42037;DHT22;30340;52.004;5.908;2023-05-29T09:12:53;17.90;53.90
42037;DHT22;30340;52.004;5.908;2023-05-29T09:15:21;18.00;53.50
42037;DHT22;30340;52.004;5.908;2023-05-29T09:17:54;18.00;53.60
42037;DHT22;30340;52.004;5.908;2023-05-29T09:20:21;18.10;53.40
42037;DHT22;30340;52.004;5.908;2023-05-29T09:22:58;18.20;53.70
42037;DHT22;30340;52.004;5.908;2023-05-29T09:25:28;18.40;53.60
42037;DHT22;30340;52.004;5.908;2023-05-29T09:27:56;18.40;53.50
42037;DHT22;30340;52.004;5.908;2023-05-29T09:30:39;18.40;53.40
42037;DHT22;30340;52.004;5.908;2023-05-29T09:33:07;18.50;53.50
42037;DHT22;30340;52.004;5.908;2023-05-29T09:35:37;18.50;53.10
42037;DHT22;30340;52.004;5.908;2023-05-29T09:38:07;18.50;53.10
42037;DHT22;30340;52.004;5.908;2023-05-29T09:40:37;18.40;53.00
42037;DHT22;30340;52.004;5.908;2023-05-29T09:43:04;18.40;53.00
42037;DHT22;30340;52.004;5.908;2023-05-29T09:45:30;18.40;52.90
42037;DHT22;30340;52.004;5.908;2023-05-29T09:47:56;18.40;52.90
42037;DHT22;30340;52.004;5.908;2023-05-29T09:50:25;18.50;53.00
42037;DHT22;30340;52.004;5.908;2023-05-29T09:52:51;18.60;53.10
42037;DHT22;30340;52.004;5.908;2023-05-29T09:55:23;18.60;53.10
42037;DHT22;30340;52.004;5.908;2023-05-29T09:57:49;18.80;52.90
42037;DHT22;30340;52.004;5.908;2023-05-29T10:00:17;18.90;52.60
42037;DHT22;30340;52.004;5.908;2023-05-29T10:02:43;18.80;52.60
42037;DHT22;30340;52.004;5.908;2023-05-29T10:05:09;19.00;52.60
42037;DHT22;30340;52.004;5.908;2023-05-29T10:07:37;19.10;52.30
42037;DHT22;30340;52.004;5.908;2023-05-29T10:10:04;19.10;52.30
42037;DHT22;30340;52.004;5.908;2023-05-29T10:12:47;19.00;51.80
42037;DHT22;30340;52.004;5.908;2023-05-29T10:15:14;19.20;52.10
42037;DHT22;30340;52.004;5.908;2023-05-29T10:18:09;19.30;51.60
42037;DHT22;30340;52.004;5.908;2023-05-29T10:20:38;19.30;51.80
42037;DHT22;30340;52.004;5.908;2023-05-29T10:23:04;19.40;51.50
42037;DHT22;30340;52.004;5.908;2023-05-29T10:25:33;19.10;50.10
42037;DHT22;30340;52.004;5.908;2023-05-29T10:28:01;19.10;50.40
42037;DHT22;30340;52.004;5.908;2023-05-29T10:30:49;19.20;50.90
42037;DHT22;30340;52.004;5.908;2023-05-29T10:33:48;19.40;50.00
42037;DHT22;30340;52.004;5.908;2023-05-29T10:36:18;19.40;49.60
42037;DHT22;30340;52.004;5.908;2023-05-29T10:38:48;19.50;49.50
42037;DHT22;30340;52.004;5.908;2023-05-29T10:43:56;19.70;49.00
42037;DHT22;30340;52.004;5.908;2023-05-29T10:49:16;19.90;48.60
42037;DHT22;30340;52.004;5.908;2023-05-29T10:51:42;19.80;48.20
42037;DHT22;30340;52.004;5.908;2023-05-29T10:54:07;19.80;48.00
42037;DHT22;30340;52.004;5.908;2023-05-29T10:56:33;19.80;47.90
42037;DHT22;30340;52.004;5.908;2023-05-29T10:59:00;19.30;47.00
42037;DHT22;30340;52.004;5.908;2023-05-29T11:01:29;19.30;48.30
42037;DHT22;30340;52.004;5.908;2023-05-29T11:06:43;19.10;49.00
42037;DHT22;30340;52.004;5.908;2023-05-29T11:09:29;19.30;49.00
42037;DHT22;30340;52.004;5.908;2023-05-29T11:12:13;19.40;48.40
42037;DHT22;30340;52.004;5.908;2023-05-29T11:14:53;19.20;47.80
42037;DHT22;30340;52.004;5.908;2023-05-29T11:17:29;19.30;48.30
42037;DHT22;30340;52.004;5.908;2023-05-29T11:19:56;19.40;48.00
42037;DHT22;30340;52.004;5.908;2023-05-29T11:22:27;19.60;48.10
42037;DHT22;30340;52.004;5.908;2023-05-29T11:24:58;19.70;47.80
42037;DHT22;30340;52.004;5.908;2023-05-29T11:27:25;19.70;46.70
42037;DHT22;30340;52.004;5.908;2023-05-29T11:29:51;19.80;47.00
42037;DHT22;30340;52.004;5.908;2023-05-29T11:32:21;19.90;47.00
42037;DHT22;30340;52.004;5.908;2023-05-29T11:34:52;20.10;46.90
42037;DHT22;30340;52.004;5.908;2023-05-29T11:37:19;20.10;47.50
42037;DHT22;30340;52.004;5.908;2023-05-29T11:39:45;20.30;46.50
42037;DHT22;30340;52.004;5.908;2023-05-29T11:42:11;20.40;46.40
42037;DHT22;30340;52.004;5.908;2023-05-29T11:44:37;20.50;46.30
42037;DHT22;30340;52.004;5.908;2023-05-29T11:47:03;20.60;46.20
42037;DHT22;30340;52.004;5.908;2023-05-29T11:49:31;20.60;45.30
42037;DHT22;30340;52.004;5.908;2023-05-29T11:52:12;20.40;45.50
42037;DHT22;30340;52.004;5.908;2023-05-29T11:54:39;20.50;45.40
42037;DHT22;30340;52.004;5.908;2023-05-29T11:57:05;20.70;44.90
42037;DHT22;30340;52.004;5.908;2023-05-29T11:59:32;20.50;44.90
42037;DHT22;30340;52.004;5.908;2023-05-29T12:01:58;20.50;44.90
42037;DHT22;30340;52.004;5.908;2023-05-29T12:04:24;20.50;44.90
42037;DHT22;30340;52.004;5.908;2023-05-29T12:06:50;20.40;44.60
42037;DHT22;30340;52.004;5.908;2023-05-29T12:09:29;20.50;44.80
42037;DHT22;30340;52.004;5.908;2023-05-29T12:12:04;20.60;44.70
42037;DHT22;30340;52.004;5.908;2023-05-29T12:14:30;20.50;44.20
42037;DHT22;30340;52.004;5.908;2023-05-29T12:16:55;20.50;44.40
42037;DHT22;30340;52.004;5.908;2023-05-29T12:19:21;20.50;44.20
42037;DHT22;30340;52.004;5.908;2023-05-29T12:21:47;20.60;44.50
42037;DHT22;30340;52.004;5.908;2023-05-29T12:24:12;20.80;44.40
42037;DHT22;30340;52.004;5.908;2023-05-29T12:26:39;20.90;43.70
42037;DHT22;30340;52.004;5.908;2023-05-29T12:29:05;20.90;43.40
42037;DHT22;30340;52.004;5.908;2023-05-29T12:31:31;20.90;42.80
42037;DHT22;30340;52.004;5.908;2023-05-29T12:34:15;20.90;42.70
42037;DHT22;30340;52.004;5.908;2023-05-29T12:36:43;20.90;42.20
42037;DHT22;30340;52.004;5.908;2023-05-29T12:39:08;20.60;43.10
42037;DHT22;30340;52.004;5.908;2023-05-29T12:41:35;20.80;43.60
42037;DHT22;30340;52.004;5.908;2023-05-29T12:44:03;20.80;43.10
42037;DHT22;30340;52.004;5.908;2023-05-29T12:46:38;20.80;43.40
42037;DHT22;30340;52.004;5.908;2023-05-29T12:49:17;20.90;43.60
42037;DHT22;30340;52.004;5.908;2023-05-29T12:51:48;20.90;43.40
42037;DHT22;30340;52.004;5.908;2023-05-29T12:54:15;20.90;43.70
42037;DHT22;30340;52.004;5.908;2023-05-29T12:56:41;20.90;43.70
42037;DHT22;30340;52.004;5.908;2023-05-29T12:59:10;20.80;43.40
42037;DHT22;30340;52.004;5.908;2023-05-29T13:01:36;20.80;43.70
42037;DHT22;30340;52.004;5.908;2023-05-29T13:04:06;20.90;43.70
42037;DHT22;30340;52.004;5.908;2023-05-29T13:06:35;21.10;43.70
42037;DHT22;30340;52.004;5.908;2023-05-29T13:09:01;21.20;43.50
42037;DHT22;30340;52.004;5.908;2023-05-29T13:11:26;21.20;43.40
42037;DHT22;30340;52.004;5.908;2023-05-29T13:13:52;21.30;43.00
42037;DHT22;30340;52.004;5.908;2023-05-29T13:16:17;21.40;42.50
42037;DHT22;30340;52.004;5.908;2023-05-29T13:18:43;21.20;41.20
42037;DHT22;30340;52.004;5.908;2023-05-29T13:21:09;21.20;41.90
42037;DHT22;30340;52.004;5.908;2023-05-29T13:23:35;21.40;42.40
42037;DHT22;30340;52.004;5.908;2023-05-29T13:26:01;21.50;41.60
42037;DHT22;30340;52.004;5.908;2023-05-29T13:28:27;21.40;41.40
42037;DHT22;30340;52.004;5.908;2023-05-29T13:30:53;21.10;41.40
42037;DHT22;30340;52.004;5.908;2023-05-29T13:33:18;21.10;42.00
42037;DHT22;30340;52.004;5.908;2023-05-29T13:35:44;21.20;41.80
42037;DHT22;30340;52.004;5.908;2023-05-29T13:38:09;21.10;41.50
42037;DHT22;30340;52.004;5.908;2023-05-29T13:40:35;21.20;41.90
42037;DHT22;30340;52.004;5.908;2023-05-29T13:43:01;21.30;41.50
42037;DHT22;30340;52.004;5.908;2023-05-29T13:45:26;21.40;41.60
42037;DHT22;30340;52.004;5.908;2023-05-29T13:47:53;21.50;41.20
42037;DHT22;30340;52.004;5.908;2023-05-29T13:50:19;21.20;40.00
42037;DHT22;30340;52.004;5.908;2023-05-29T13:52:45;21.30;41.00
42037;DHT22;30340;52.004;5.908;2023-05-29T13:55:10;21.50;41.40
42037;DHT22;30340;52.004;5.908;2023-05-29T13:57:36;21.70;40.80
42037;DHT22;30340;52.004;5.908;2023-05-29T14:00:03;21.80;40.50
42037;DHT22;30340;52.004;5.908;2023-05-29T14:02:29;21.70;40.60
42037;DHT22;30340;52.004;5.908;2023-05-29T14:04:55;21.70;40.30
42037;DHT22;30340;52.004;5.908;2023-05-29T14:07:20;21.80;40.60
42037;DHT22;30340;52.004;5.908;2023-05-29T14:09:46;21.80;40.30
42037;DHT22;30340;52.004;5.908;2023-05-29T14:12:11;22.00;39.40
42037;DHT22;30340;52.004;5.908;2023-05-29T14:14:37;22.10;39.20
42037;DHT22;30340;52.004;5.908;2023-05-29T14:17:03;22.20;38.70
42037;DHT22;30340;52.004;5.908;2023-05-29T14:19:30;22.20;39.10
42037;DHT22;30340;52.004;5.908;2023-05-29T14:21:56;22.20;39.40
42037;DHT22;30340;52.004;5.908;2023-05-29T14:24:21;22.20;39.60
42037;DHT22;30340;52.004;5.908;2023-05-29T14:26:48;22.10;39.70
42037;DHT22;30340;52.004;5.908;2023-05-29T14:29:14;22.20;39.80
42037;DHT22;30340;52.004;5.908;2023-05-29T14:31:41;22.30;39.40
42037;DHT22;30340;52.004;5.908;2023-05-29T14:34:06;22.20;39.30
42037;DHT22;30340;52.004;5.908;2023-05-29T14:36:32;22.30;39.30
42037;DHT22;30340;52.004;5.908;2023-05-29T14:38:58;22.40;39.00
42037;DHT22;30340;52.004;5.908;2023-05-29T14:41:23;22.50;38.70
42037;DHT22;30340;52.004;5.908;2023-05-29T14:43:51;22.20;37.70
42037;DHT22;30340;52.004;5.908;2023-05-29T14:46:17;22.00;38.00
42037;DHT22;30340;52.004;5.908;2023-05-29T14:48:42;22.00;38.90
42037;DHT22;30340;52.004;5.908;2023-05-29T14:51:08;22.00;39.20
42037;DHT22;30340;52.004;5.908;2023-05-29T14:53:35;22.10;39.40
42037;DHT22;30340;52.004;5.908;2023-05-29T14:56:01;22.10;39.20
42037;DHT22;30340;52.004;5.908;2023-05-29T14:58:27;22.00;39.40
42037;DHT22;30340;52.004;5.908;2023-05-29T15:00:53;22.10;39.50
42037;DHT22;30340;52.004;5.908;2023-05-29T15:03:18;22.00;39.00
42037;DHT22;30340;52.004;5.908;2023-05-29T15:05:44;22.10;39.30
42037;DHT22;30340;52.004;5.908;2023-05-29T15:08:11;22.30;39.00
42037;DHT22;30340;52.004;5.908;2023-05-29T15:10:36;22.40;38.70
42037;DHT22;30340;52.004;5.908;2023-05-29T15:13:02;22.50;38.10
42037;DHT22;30340;52.004;5.908;2023-05-29T15:15:29;22.40;37.70
42037;DHT22;30340;52.004;5.908;2023-05-29T15:17:55;22.40;37.10
42037;DHT22;30340;52.004;5.908;2023-05-29T15:20:24;22.10;37.20
42037;DHT22;30340;52.004;5.908;2023-05-29T15:22:50;22.20;37.00
42037;DHT22;30340;52.004;5.908;2023-05-29T15:25:17;22.10;36.80
42037;DHT22;30340;52.004;5.908;2023-05-29T15:27:43;21.90;37.10
42037;DHT22;30340;52.004;5.908;2023-05-29T15:30:13;22.00;37.10
42037;DHT22;30340;52.004;5.908;2023-05-29T15:32:41;21.60;37.20
42037;DHT22;30340;52.004;5.908;2023-05-29T15:35:10;21.60;36.80
42037;DHT22;30340;52.004;5.908;2023-05-29T15:37:37;21.60;36.70
42037;DHT22;30340;52.004;5.908;2023-05-29T15:40:03;21.50;37.40
42037;DHT22;30340;52.004;5.908;2023-05-29T15:42:30;21.80;37.90
42037;DHT22;30340;52.004;5.908;2023-05-29T15:44:56;21.90;38.10